createdAt,value
2022-08-17T00:00:05.756Z,77.19
2022-08-17T00:02:36.882Z,76.85
2022-08-17T00:05:10.695Z,76.93
2022-08-17T00:07:38.158Z,76.49
2022-08-17T00:10:05.952Z,75.93
2022-08-17T00:12:44.631Z,75.87
2022-08-17T00:15:14.021Z,75.45
2022-08-17T00:17:42.134Z,75.14
2022-08-17T00:20:12.082Z,75.10
2022-08-17T00:22:39.576Z,74.95
2022-08-17T00:25:13.954Z,74.83
2022-08-17T00:27:41.517Z,75.19
2022-08-17T00:30:12.243Z,75.02
2022-08-17T00:33:15.195Z,75.04
2022-08-17T00:35:35.792Z,74.94
2022-08-17T00:38:04.142Z,75.22
2022-08-17T00:40:39.889Z,75.16
2022-08-17T00:43:20.270Z,75.16
2022-08-17T00:45:48.550Z,75.17
2022-08-17T00:48:29.952Z,75.14
2022-08-17T00:51:16.253Z,75.31
2022-08-17T00:53:46.581Z,75.13
2022-08-17T00:56:20.994Z,75.26
2022-08-17T00:58:52.172Z,75.08
2022-08-17T01:01:21.996Z,75.34
2022-08-17T01:03:51.605Z,75.60
2022-08-17T01:06:19.871Z,75.25
2022-08-17T01:08:47.610Z,75.38
2022-08-17T01:11:15.391Z,75.53
2022-08-17T01:13:45.121Z,75.41
2022-08-17T01:16:21.346Z,75.41
2022-08-17T01:18:51.706Z,75.22
2022-08-17T01:21:55.973Z,75.08
2022-08-17T01:24:23.480Z,74.47
2022-08-17T01:26:51.130Z,74.53
2022-08-17T01:29:21.152Z,74.16
2022-08-17T01:31:53.676Z,73.69
2022-08-17T01:34:22.305Z,73.73
2022-08-17T01:36:50.833Z,73.51
2022-08-17T01:39:24.491Z,73.45
2022-08-17T01:41:57.273Z,73.65
2022-08-17T01:44:26.841Z,73.93
2022-08-17T01:46:55.158Z,74.61
2022-08-17T01:49:23.591Z,74.72
2022-08-17T01:51:51.122Z,75.42
2022-08-17T01:54:20.523Z,76.40
2022-08-17T01:56:51.895Z,77.66
2022-08-17T01:59:21.447Z,78.39
2022-08-17T02:01:49.072Z,78.74
2022-08-17T02:04:16.981Z,79.87
2022-08-17T02:06:52.603Z,80.81
2022-08-17T02:09:25.436Z,81.22
2022-08-17T02:11:54.091Z,81.85
2022-08-17T02:14:22.126Z,82.78
2022-08-17T02:16:49.891Z,82.59
2022-08-17T02:19:17.692Z,83.33
2022-08-17T02:21:48.466Z,84.90
2022-08-17T02:24:59.607Z,85.47
2022-08-17T02:27:12.838Z,85.66
2022-08-17T02:29:40.459Z,85.83
2022-08-17T02:32:20.876Z,86.60
2022-08-17T02:34:55.612Z,86.50
2022-08-17T02:37:23.116Z,86.04
2022-08-17T02:39:50.740Z,86.53
2022-08-17T02:42:18.448Z,86.79
2022-08-17T02:44:45.922Z,87.03
2022-08-17T02:47:13.527Z,87.07
2022-08-17T02:49:41.110Z,86.83
2022-08-17T02:52:09.123Z,86.69
2022-08-17T02:54:40.103Z,86.57
2022-08-17T02:57:08.539Z,86.47
2022-08-17T02:59:36.066Z,86.27
2022-08-17T03:02:12.205Z,86.44
2022-08-17T03:04:40.022Z,86.68
2022-08-17T03:07:07.663Z,86.77
2022-08-17T03:09:35.215Z,87.43
2022-08-17T03:12:12.401Z,86.54
2022-08-17T03:14:44.757Z,85.73
2022-08-17T03:17:16.926Z,85.56
2022-08-17T03:19:45.346Z,84.96
2022-08-17T03:22:35.848Z,85.02
2022-08-17T03:25:00.377Z,85.01
2022-08-17T03:27:28.368Z,84.66
2022-08-17T03:29:56.112Z,84.78
2022-08-17T03:32:23.691Z,84.23
2022-08-17T03:34:51.189Z,84.14
2022-08-17T03:37:18.677Z,84.32
2022-08-17T03:39:46.268Z,84.38
2022-08-17T03:42:32.498Z,84.55
2022-08-17T03:45:01.040Z,84.78
2022-08-17T03:47:46.581Z,84.99
2022-08-17T03:50:35.359Z,85.61
2022-08-17T03:53:24.543Z,85.48
2022-08-17T03:56:09.315Z,86.02
2022-08-17T03:58:37.353Z,86.22
2022-08-17T04:01:09.067Z,86.46
2022-08-17T04:03:36.728Z,86.27
2022-08-17T04:06:05.474Z,86.40
2022-08-17T04:08:33.523Z,86.42
2022-08-17T04:11:02.153Z,86.79
2022-08-17T04:13:29.666Z,86.86
2022-08-17T04:15:57.300Z,87.21
2022-08-17T04:18:25.959Z,87.33
2022-08-17T04:20:53.506Z,87.31
2022-08-17T04:23:20.992Z,87.51
2022-08-17T04:25:53.204Z,87.45
2022-08-17T04:28:21.312Z,87.60
2022-08-17T04:30:49.164Z,87.57
2022-08-17T04:33:19.598Z,87.56
2022-08-17T04:35:53.945Z,87.32
2022-08-17T04:38:25.150Z,87.29
2022-08-17T04:41:11.185Z,87.57
2022-08-17T04:43:40.945Z,87.28
2022-08-17T04:46:11.194Z,87.45
2022-08-17T04:48:42.588Z,87.63
2022-08-17T04:51:24.146Z,87.80
2022-08-17T04:53:55.106Z,88.01
2022-08-17T04:56:25.024Z,88.00
2022-08-17T04:58:56.140Z,88.13
2022-08-17T05:01:26.143Z,88.29
2022-08-17T05:03:56.091Z,88.12
2022-08-17T05:06:24.464Z,88.57
2022-08-17T05:08:52.285Z,88.62
2022-08-17T05:11:19.982Z,88.71
2022-08-17T05:13:50.100Z,88.85
2022-08-17T05:16:19.339Z,88.84
2022-08-17T05:18:46.967Z,89.16
2022-08-17T05:21:15.969Z,88.96
2022-08-17T05:23:44.268Z,88.58
2022-08-17T05:26:26.350Z,88.63
2022-08-17T05:29:00.382Z,88.62
2022-08-17T05:31:30.515Z,88.51
2022-08-17T05:33:58.441Z,88.43
2022-08-17T05:36:41.764Z,88.30
2022-08-17T05:39:16.643Z,88.07
2022-08-17T05:41:45.627Z,88.25
2022-08-17T05:44:13.169Z,88.01
2022-08-17T05:46:44.546Z,88.01
2022-08-17T05:49:15.158Z,87.68
2022-08-17T05:52:20.143Z,87.65
2022-08-17T05:55:20.886Z,87.32
2022-08-17T05:58:00.997Z,87.48
2022-08-17T06:00:37.938Z,87.20
2022-08-17T06:03:28.387Z,86.84
2022-08-17T06:06:08.902Z,86.90
2022-08-17T06:08:44.540Z,86.96
2022-08-17T06:11:11.954Z,86.87
2022-08-17T06:14:18.422Z,86.61
2022-08-17T06:16:50.918Z,85.66
2022-08-17T06:19:20.557Z,86.05
2022-08-17T06:21:52.330Z,85.45
2022-08-17T06:24:34.182Z,85.40
2022-08-17T06:27:30.662Z,85.52
2022-08-17T06:30:14.550Z,85.31
2022-08-17T06:32:45.783Z,84.90
2022-08-17T06:35:27.777Z,84.69
2022-08-17T06:38:21.856Z,84.23
2022-08-17T06:41:26.827Z,84.57
2022-08-17T06:44:07.190Z,84.34
2022-08-17T06:46:42.960Z,83.97
2022-08-17T06:49:25.859Z,84.31
2022-08-17T06:51:58.264Z,83.83
2022-08-17T06:54:37.946Z,83.62
2022-08-17T06:57:26.650Z,83.00
2022-08-17T06:59:59.705Z,83.40
2022-08-17T07:02:56.434Z,83.68
2022-08-17T07:05:31.685Z,83.77
2022-08-17T07:08:11.555Z,83.91
2022-08-17T07:10:45.568Z,83.90
2022-08-17T07:13:30.666Z,84.10
2022-08-17T07:16:08.900Z,83.71
2022-08-17T07:18:36.481Z,83.86
2022-08-17T07:21:20.718Z,83.18
2022-08-17T07:24:29.754Z,83.62
2022-08-17T07:27:06.321Z,82.83
2022-08-17T07:29:40.219Z,82.70
2022-08-17T07:32:09.543Z,82.89
2022-08-17T07:35:10.523Z,100.00
2022-08-17T07:37:40.860Z,81.92
2022-08-17T07:40:22.309Z,81.45
2022-08-17T07:43:26.523Z,81.15
2022-08-17T07:46:14.246Z,80.51
2022-08-17T07:48:44.946Z,80.05
2022-08-17T07:51:27.812Z,80.55
2022-08-17T07:54:13.091Z,79.48
2022-08-17T07:56:41.323Z,79.69
2022-08-17T07:59:18.398Z,78.64
2022-08-17T08:02:00.802Z,78.83
2022-08-17T08:04:59.828Z,78.75
2022-08-17T08:08:02.027Z,78.50
2022-08-17T08:10:38.913Z,78.44
2022-08-17T08:13:33.237Z,78.96
2022-08-17T08:16:22.582Z,79.16
2022-08-17T08:18:56.759Z,79.19
2022-08-17T08:21:34.310Z,79.44
2022-08-17T08:24:19.563Z,79.41
2022-08-17T08:27:04.205Z,79.88
2022-08-17T08:29:43.833Z,79.88
2022-08-17T08:32:26.535Z,79.95
2022-08-17T08:35:04.753Z,80.30
2022-08-17T08:38:13.633Z,79.98
2022-08-17T08:41:02.580Z,79.99
2022-08-17T08:43:54.770Z,79.89
2022-08-17T08:46:52.517Z,79.43
2022-08-17T08:49:39.027Z,79.36
2022-08-17T08:52:30.852Z,79.05
2022-08-17T08:55:28.054Z,79.05
2022-08-17T08:58:03.936Z,79.03
2022-08-17T09:00:35.728Z,79.74
2022-08-17T09:03:28.096Z,78.38
2022-08-17T09:06:33.509Z,75.70
2022-08-17T09:09:36.673Z,72.96
2022-08-17T09:12:22.206Z,71.18
2022-08-17T09:15:02.347Z,70.53
2022-08-17T09:18:14.566Z,71.48
2022-08-17T09:20:49.597Z,72.02
2022-08-17T09:23:26.695Z,72.65
2022-08-17T09:26:22.962Z,73.13
2022-08-17T09:29:00.233Z,75.95
2022-08-17T09:31:46.384Z,78.29
2022-08-17T09:34:28.204Z,80.32
2022-08-17T09:37:07.080Z,81.39
2022-08-17T09:39:43.357Z,82.11
2022-08-17T09:42:33.414Z,83.57
2022-08-17T09:45:19.388Z,83.16
2022-08-17T09:47:57.344Z,82.79
2022-08-17T09:51:03.610Z,82.09
2022-08-17T09:53:32.395Z,81.26
2022-08-17T09:56:21.568Z,81.23
2022-08-17T09:58:56.378Z,79.68
2022-08-17T10:01:44.113Z,79.43
2022-08-17T10:04:50.953Z,77.97
2022-08-17T10:08:09.219Z,77.89
2022-08-17T10:10:52.413Z,78.20
2022-08-17T10:13:54.607Z,78.10
2022-08-17T10:16:42.112Z,77.40
2022-08-17T10:19:31.443Z,77.01
2022-08-17T10:22:35.346Z,76.51
2022-08-17T10:25:37.811Z,76.19
2022-08-17T10:28:22.813Z,75.95
2022-08-17T10:31:16.599Z,76.12
2022-08-17T10:34:06.035Z,74.70
2022-08-17T10:36:39.155Z,74.30
2022-08-17T10:39:33.415Z,74.21
2022-08-17T10:42:30.287Z,73.72
2022-08-17T10:45:07.930Z,73.45
2022-08-17T10:48:06.233Z,73.88
2022-08-17T10:51:28.651Z,73.10
2022-08-17T10:53:57.755Z,72.28
2022-08-17T10:56:39.412Z,72.17
2022-08-17T10:59:07.354Z,70.77
2022-08-17T11:01:35.360Z,70.84
2022-08-17T11:04:30.567Z,71.41
2022-08-17T11:07:32.527Z,71.43
2022-08-17T11:10:15.798Z,72.85
2022-08-17T11:13:01.337Z,72.56
2022-08-17T11:15:43.333Z,72.03
2022-08-17T11:18:19.935Z,69.88
2022-08-17T11:21:42.575Z,69.63
2022-08-17T11:24:17.574Z,70.15
2022-08-17T11:27:02.165Z,69.13
2022-08-17T11:29:39.391Z,69.77
2022-08-17T11:32:28.086Z,70.80
2022-08-17T11:35:23.044Z,70.19
2022-08-17T11:38:29.040Z,70.47
2022-08-17T11:41:11.510Z,71.11
2022-08-17T11:44:15.423Z,71.42
2022-08-17T11:47:00.442Z,71.56
2022-08-17T11:50:16.846Z,72.23
2022-08-17T11:52:48.150Z,73.22
2022-08-17T11:55:36.418Z,74.21
2022-08-17T11:58:26.629Z,75.29
2022-08-17T12:00:59.966Z,76.33
2022-08-17T12:03:33.649Z,77.52
2022-08-17T12:06:17.047Z,77.88
2022-08-17T12:09:08.239Z,78.97
2022-08-17T12:12:04.589Z,80.27
2022-08-17T12:15:05.947Z,80.51
2022-08-17T12:17:41.244Z,80.85
2022-08-17T12:20:21.471Z,80.55
2022-08-17T12:22:56.354Z,81.37
2022-08-17T12:25:49.406Z,81.73
2022-08-17T12:28:39.054Z,81.92
2022-08-17T12:31:18.931Z,82.32
2022-08-17T12:33:48.043Z,82.79
2022-08-17T12:36:17.834Z,83.13
2022-08-17T12:39:12.783Z,83.56
2022-08-17T12:41:47.060Z,83.78
2022-08-17T12:44:24.939Z,83.72
2022-08-17T12:46:56.579Z,83.49
2022-08-17T12:49:26.536Z,84.44
2022-08-17T12:52:03.030Z,84.88
2022-08-17T12:54:39.650Z,85.34
2022-08-17T12:57:20.237Z,85.63
2022-08-17T12:59:52.998Z,85.68
2022-08-17T13:02:39.730Z,85.74
2022-08-17T13:05:09.669Z,86.51
2022-08-17T13:07:43.521Z,86.32
2022-08-17T13:10:36.149Z,86.65
2022-08-17T13:13:17.757Z,86.73
2022-08-17T13:16:09.439Z,86.46
2022-08-17T13:19:15.384Z,86.86
2022-08-17T13:21:49.526Z,86.96
2022-08-17T13:24:28.360Z,87.11
2022-08-17T13:27:15.230Z,86.04
2022-08-17T13:29:45.605Z,85.97
2022-08-17T13:32:22.902Z,85.69
2022-08-17T13:35:14.380Z,85.88
2022-08-17T13:37:41.425Z,85.85
2022-08-17T13:40:10.258Z,86.24
2022-08-17T13:42:52.770Z,86.13
2022-08-17T13:45:38.734Z,86.62
2022-08-17T13:48:13.696Z,86.73
2022-08-17T13:51:05.237Z,86.91
2022-08-17T13:53:34.271Z,87.59
2022-08-17T13:56:33.303Z,87.39
2022-08-17T13:59:11.715Z,87.61
2022-08-17T14:01:53.585Z,88.26
2022-08-17T14:04:27.821Z,88.36
2022-08-17T14:07:11.464Z,88.34
2022-08-17T14:09:42.091Z,88.85
2022-08-17T14:12:13.007Z,88.58
2022-08-17T14:14:42.967Z,88.56
2022-08-17T14:17:11.660Z,88.52
2022-08-17T14:19:40.080Z,88.96
2022-08-17T14:22:11.602Z,89.20
2022-08-17T14:24:44.894Z,89.23
2022-08-17T14:27:13.216Z,89.23
2022-08-17T14:29:41.158Z,89.59
2022-08-17T14:32:19.326Z,89.76
2022-08-17T14:34:49.550Z,89.84
2022-08-17T14:37:18.883Z,89.13
2022-08-17T14:39:46.846Z,89.35
2022-08-17T14:42:16.551Z,89.14
2022-08-17T14:44:44.198Z,88.59
2022-08-17T14:47:15.246Z,88.64
2022-08-17T14:49:47.497Z,88.05
2022-08-17T14:52:21.456Z,88.80
2022-08-17T14:54:51.290Z,88.56
2022-08-17T14:57:25.828Z,88.22
2022-08-17T15:00:02.102Z,88.69
2022-08-17T15:02:31.063Z,87.42
2022-08-17T15:05:04.385Z,86.94
2022-08-17T15:07:32.266Z,86.34
2022-08-17T15:10:02.801Z,86.18
2022-08-17T15:12:34.047Z,85.47
2022-08-17T15:15:05.519Z,86.17
2022-08-17T15:17:44.191Z,85.94
2022-08-17T15:20:34.178Z,85.91
2022-08-17T15:23:01.759Z,85.71
2022-08-17T15:25:32.206Z,86.34
2022-08-17T15:28:00.852Z,85.03
2022-08-17T15:30:29.232Z,85.23
2022-08-17T15:32:58.758Z,85.48
2022-08-17T15:35:29.410Z,85.13
2022-08-17T15:38:11.650Z,85.49
2022-08-17T15:40:43.466Z,85.78
2022-08-17T15:43:16.254Z,85.34
2022-08-17T15:45:44.789Z,84.96
2022-08-17T15:48:40.641Z,84.80
2022-08-17T15:51:18.884Z,84.83
2022-08-17T15:53:50.322Z,84.04
2022-08-17T15:56:18.419Z,83.85
2022-08-17T15:58:47.622Z,84.05
2022-08-17T16:01:41.855Z,83.84
2022-08-17T16:04:26.385Z,84.39
2022-08-17T16:06:53.705Z,83.67
2022-08-17T16:09:21.186Z,83.77
2022-08-17T16:11:53.757Z,83.07
2022-08-17T16:14:33.939Z,83.56
2022-08-17T16:17:03.653Z,83.32
2022-08-17T16:19:32.463Z,82.50
2022-08-17T16:22:00.128Z,82.71
2022-08-17T16:24:27.668Z,81.72
2022-08-17T16:26:55.318Z,81.84
2022-08-17T16:29:23.377Z,81.02
2022-08-17T16:31:51.895Z,81.15
2022-08-17T16:34:19.608Z,80.60
2022-08-17T16:36:54.937Z,80.55
2022-08-17T16:39:29.282Z,79.80
2022-08-17T16:41:57.567Z,79.51
2022-08-17T16:44:26.149Z,80.28
2022-08-17T16:46:53.674Z,79.51
2022-08-17T16:49:36.039Z,78.72
2022-08-17T16:52:07.486Z,79.99
2022-08-17T16:54:35.782Z,79.81
2022-08-17T16:57:04.996Z,80.23
2022-08-17T16:59:41.062Z,79.33
2022-08-17T17:02:16.801Z,79.59
2022-08-17T17:04:53.001Z,78.91
2022-08-17T17:07:35.254Z,79.16
2022-08-17T17:10:10.310Z,79.93
2022-08-17T17:13:02.187Z,80.60
2022-08-17T17:15:31.344Z,80.50
2022-08-17T17:18:06.936Z,81.14
2022-08-17T17:20:43.757Z,80.63
2022-08-17T17:23:34.591Z,80.81
2022-08-17T17:26:18.865Z,81.41
2022-08-17T17:29:01.790Z,80.76
2022-08-17T17:31:39.144Z,81.60
2022-08-17T17:34:11.258Z,81.11
2022-08-17T17:36:58.979Z,81.34
2022-08-17T17:39:36.224Z,81.46
2022-08-17T17:42:07.688Z,80.93
2022-08-17T17:44:41.438Z,81.41
2022-08-17T17:47:09.861Z,80.89
2022-08-17T17:49:43.783Z,81.14
2022-08-17T17:52:39.087Z,80.90
2022-08-17T17:55:32.914Z,81.42
2022-08-17T17:58:13.320Z,80.61
2022-08-17T18:01:17.823Z,80.91
2022-08-17T18:03:51.470Z,81.64
2022-08-17T18:06:21.859Z,81.60
2022-08-17T18:09:06.295Z,81.30
2022-08-17T18:11:58.932Z,80.51
2022-08-17T18:15:04.209Z,80.70
2022-08-17T18:17:33.422Z,80.87
2022-08-17T18:20:01.462Z,81.01
2022-08-17T18:22:28.972Z,79.96
2022-08-17T18:24:57.317Z,80.33
2022-08-17T18:27:35.964Z,80.08
2022-08-17T18:30:29.784Z,80.72
2022-08-17T18:33:24.528Z,80.43
2022-08-17T18:35:58.864Z,80.26
2022-08-17T18:38:36.369Z,80.18
2022-08-17T18:41:19.731Z,80.71
2022-08-17T18:44:06.678Z,80.91
2022-08-17T18:46:37.982Z,81.48
2022-08-17T18:49:24.870Z,81.98
2022-08-17T18:52:10.895Z,83.01
2022-08-17T18:54:39.113Z,83.94
2022-08-17T18:57:08.591Z,84.46
2022-08-17T18:59:45.396Z,84.45
2022-08-17T19:02:22.061Z,84.48
2022-08-17T19:05:27.067Z,85.40
2022-08-17T19:07:55.100Z,85.88
2022-08-17T19:10:32.662Z,86.71
2022-08-17T19:13:24.417Z,87.12
2022-08-17T19:16:15.117Z,88.08
2022-08-17T19:18:48.907Z,88.48
2022-08-17T19:21:22.435Z,89.22
2022-08-17T19:24:01.561Z,90.69
2022-08-17T19:26:54.550Z,92.01
2022-08-17T19:29:26.283Z,92.30
2022-08-17T19:31:59.605Z,92.83
2022-08-17T19:34:33.969Z,92.39
2022-08-17T19:37:26.748Z,91.73
2022-08-17T19:40:29.297Z,91.17
2022-08-17T19:43:33.471Z,90.72
2022-08-17T19:46:11.978Z,90.26
2022-08-17T19:49:06.838Z,89.95
2022-08-17T19:51:47.821Z,89.82
2022-08-17T19:54:35.079Z,90.16
2022-08-17T19:57:22.776Z,90.58
2022-08-17T19:59:55.210Z,91.03
2022-08-17T20:02:41.185Z,91.15
2022-08-17T20:05:27.435Z,91.22
2022-08-17T20:08:03.009Z,91.51
2022-08-17T20:10:53.659Z,92.03
2022-08-17T20:13:33.202Z,92.52
2022-08-17T20:16:02.396Z,92.96
2022-08-17T20:18:47.547Z,93.23
2022-08-17T20:21:20.807Z,93.59
2022-08-17T20:23:54.309Z,93.52
2022-08-17T20:26:21.788Z,93.58
2022-08-17T20:29:16.731Z,94.14
2022-08-17T20:31:49.543Z,94.26
2022-08-17T20:34:33.469Z,94.49
2022-08-17T20:37:16.192Z,94.43
2022-08-17T20:40:06.469Z,94.80
2022-08-17T20:42:35.183Z,95.00
2022-08-17T20:45:25.921Z,94.89
2022-08-17T20:48:22.171Z,94.85
2022-08-17T20:50:57.055Z,94.94
2022-08-17T20:53:49.183Z,94.78
2022-08-17T20:56:44.387Z,94.54
2022-08-17T20:59:25.540Z,94.61
2022-08-17T21:02:18.653Z,94.80
2022-08-17T21:04:54.373Z,94.64
2022-08-17T21:07:42.765Z,94.94
2022-08-17T21:10:19.423Z,95.08
2022-08-17T21:12:53.218Z,95.01
2022-08-17T21:15:31.787Z,94.99
2022-08-17T21:18:18.853Z,94.88
2022-08-17T21:21:01.787Z,95.09
2022-08-17T21:24:03.332Z,95.05
2022-08-17T21:26:51.114Z,94.89
2022-08-17T21:29:31.516Z,94.86
2022-08-17T21:32:02.889Z,94.95
2022-08-17T21:34:44.582Z,94.87
2022-08-17T21:37:21.821Z,95.04
2022-08-17T21:40:00.329Z,94.93
2022-08-17T21:42:31.679Z,95.13
2022-08-17T21:45:13.399Z,95.19
2022-08-17T21:47:43.521Z,95.30
2022-08-17T21:50:23.726Z,95.18
2022-08-17T21:52:54.567Z,95.57
2022-08-17T21:55:29.447Z,95.50
2022-08-17T21:58:13.884Z,95.60
2022-08-17T22:00:44.993Z,95.70
2022-08-17T22:03:25.859Z,95.44
2022-08-17T22:05:53.443Z,95.50
2022-08-17T22:08:24.201Z,95.18
2022-08-17T22:11:01.543Z,95.43
2022-08-17T22:13:29.670Z,95.44
2022-08-17T22:16:29.255Z,95.36
2022-08-17T22:18:58.953Z,95.66
2022-08-17T22:21:27.581Z,95.59
2022-08-17T22:24:05.362Z,95.52
2022-08-17T22:27:06.877Z,95.62
2022-08-17T22:29:45.218Z,95.39
2022-08-17T22:32:31.868Z,95.50
2022-08-17T22:35:18.116Z,95.60
2022-08-17T22:37:46.032Z,95.47
2022-08-17T22:40:26.193Z,95.86
2022-08-17T22:42:53.786Z,95.62
2022-08-17T22:45:21.510Z,95.84
2022-08-17T22:47:49.114Z,95.88
2022-08-17T22:50:26.698Z,95.85
2022-08-17T22:53:19.221Z,95.68
2022-08-17T22:56:13.542Z,95.46
2022-08-17T22:59:09.618Z,95.91
2022-08-17T23:01:37.216Z,95.84
2022-08-17T23:04:11.720Z,95.81
2022-08-17T23:06:42.390Z,95.62
2022-08-17T23:09:10.018Z,95.81
2022-08-17T23:11:49.366Z,95.92
2022-08-17T23:14:20.091Z,95.94
2022-08-17T23:16:51.211Z,95.88
2022-08-17T23:19:21.538Z,95.92
2022-08-17T23:21:55.252Z,95.71
2022-08-17T23:24:26.240Z,95.62
2022-08-17T23:26:56.983Z,95.58
2022-08-17T23:29:25.997Z,95.56
2022-08-17T23:31:53.741Z,95.54
2022-08-17T23:34:24.260Z,95.41
2022-08-17T23:36:53.109Z,95.45
2022-08-17T23:39:27.436Z,95.21
2022-08-17T23:41:57.945Z,95.03
2022-08-17T23:44:26.069Z,95.00
2022-08-17T23:46:54.443Z,94.90
2022-08-17T23:49:23.411Z,95.00
2022-08-17T23:51:53.536Z,95.02
2022-08-17T23:54:44.567Z,95.21
2022-08-17T23:57:14.452Z,95.15
2022-08-17T23:59:42.043Z,94.95
